sensor_id;sensor_type;location;lat;lon;timestamp;temperature;humidity
10583;DHT22;33679;51.218;6.786;2023-05-10T00:00:30;18.00;99.90
10583;DHT22;33679;51.218;6.786;2023-05-10T00:03:03;18.00;99.90
10583;DHT22;33679;51.218;6.786;2023-05-10T00:05:38;18.00;99.90
10583;DHT22;33679;51.218;6.786;2023-05-10T00:08:12;18.00;99.90
10583;DHT22;33679;51.218;6.786;2023-05-10T00:10:45;18.10;99.90
10583;DHT22;33679;51.218;6.786;2023-05-10T00:13:18;18.10;99.90
10583;DHT22;33679;51.218;6.786;2023-05-10T00:15:51;18.00;99.90
10583;DHT22;33679;51.218;6.786;2023-05-10T00:18:23;18.00;99.90
10583;DHT22;33679;51.218;6.786;2023-05-10T00:20:55;17.90;99.90
10583;DHT22;33679;51.218;6.786;2023-05-10T00:23:28;17.90;99.90
10583;DHT22;33679;51.218;6.786;2023-05-10T00:26:00;17.90;99.90
10583;DHT22;33679;51.218;6.786;2023-05-10T00:28:34;17.90;99.90
10583;DHT22;33679;51.218;6.786;2023-05-10T00:31:07;17.90;99.90
10583;DHT22;33679;51.218;6.786;2023-05-10T00:33:40;17.90;99.90
10583;DHT22;33679;51.218;6.786;2023-05-10T00:36:13;17.90;99.90
10583;DHT22;33679;51.218;6.786;2023-05-10T00:38:45;17.90;99.90
10583;DHT22;33679;51.218;6.786;2023-05-10T00:41:18;17.90;99.90
10583;DHT22;33679;51.218;6.786;2023-05-10T00:43:55;17.90;99.90
10583;DHT22;33679;51.218;6.786;2023-05-10T00:46:28;17.90;99.90
10583;DHT22;33679;51.218;6.786;2023-05-10T00:49:01;17.90;99.90
10583;DHT22;33679;51.218;6.786;2023-05-10T00:51:34;17.90;99.90
10583;DHT22;33679;51.218;6.786;2023-05-10T00:54:11;17.90;99.90
10583;DHT22;33679;51.218;6.786;2023-05-10T00:56:44;17.90;99.90
10583;DHT22;33679;51.218;6.786;2023-05-10T00:59:21;18.00;99.90
10583;DHT22;33679;51.218;6.786;2023-05-10T01:01:54;18.00;99.90
10583;DHT22;33679;51.218;6.786;2023-05-10T01:04:27;17.90;99.90
10583;DHT22;33679;51.218;6.786;2023-05-10T01:07:01;17.90;99.90
10583;DHT22;33679;51.218;6.786;2023-05-10T01:09:34;17.90;99.90
10583;DHT22;33679;51.218;6.786;2023-05-10T01:12:07;17.90;99.90
10583;DHT22;33679;51.218;6.786;2023-05-10T01:14:41;17.90;99.90
10583;DHT22;33679;51.218;6.786;2023-05-10T01:17:14;17.90;99.90
10583;DHT22;33679;51.218;6.786;2023-05-10T01:19:47;17.90;99.90
10583;DHT22;33679;51.218;6.786;2023-05-10T01:22:43;17.90;99.90
10583;DHT22;33679;51.218;6.786;2023-05-10T01:25:34;17.90;99.90
10583;DHT22;33679;51.218;6.786;2023-05-10T01:28:37;17.90;99.90
10583;DHT22;33679;51.218;6.786;2023-05-10T01:31:28;17.80;99.90
10583;DHT22;33679;51.218;6.786;2023-05-10T01:34:07;17.90;99.90
10583;DHT22;33679;51.218;6.786;2023-05-10T01:36:55;17.90;99.90
10583;DHT22;33679;51.218;6.786;2023-05-10T01:39:36;17.90;99.90
10583;DHT22;33679;51.218;6.786;2023-05-10T01:42:16;17.90;99.90
10583;DHT22;33679;51.218;6.786;2023-05-10T01:44:54;17.90;99.90
10583;DHT22;33679;51.218;6.786;2023-05-10T01:47:32;17.90;99.90
10583;DHT22;33679;51.218;6.786;2023-05-10T01:50:14;17.90;99.90
10583;DHT22;33679;51.218;6.786;2023-05-10T01:52:53;17.90;99.90
10583;DHT22;33679;51.218;6.786;2023-05-10T01:55:32;17.90;99.90
10583;DHT22;33679;51.218;6.786;2023-05-10T01:58:07;17.80;99.90
10583;DHT22;33679;51.218;6.786;2023-05-10T02:00:44;17.80;99.90
10583;DHT22;33679;51.218;6.786;2023-05-10T02:03:18;17.80;99.90
10583;DHT22;33679;51.218;6.786;2023-05-10T02:05:54;17.80;99.90
10583;DHT22;33679;51.218;6.786;2023-05-10T02:08:28;17.80;99.90
10583;DHT22;33679;51.218;6.786;2023-05-10T02:11:02;17.80;99.90
10583;DHT22;33679;51.218;6.786;2023-05-10T02:13:37;17.80;99.90
10583;DHT22;33679;51.218;6.786;2023-05-10T02:16:11;17.80;99.90
10583;DHT22;33679;51.218;6.786;2023-05-10T02:18:48;17.90;99.90
10583;DHT22;33679;51.218;6.786;2023-05-10T02:21:24;17.90;99.90
10583;DHT22;33679;51.218;6.786;2023-05-10T02:23:58;17.80;99.90
10583;DHT22;33679;51.218;6.786;2023-05-10T02:26:34;17.80;99.90
10583;DHT22;33679;51.218;6.786;2023-05-10T02:29:07;17.80;99.90
10583;DHT22;33679;51.218;6.786;2023-05-10T02:31:45;17.80;99.90
10583;DHT22;33679;51.218;6.786;2023-05-10T02:34:17;17.80;99.90
10583;DHT22;33679;51.218;6.786;2023-05-10T02:36:52;17.80;99.90
10583;DHT22;33679;51.218;6.786;2023-05-10T02:39:26;17.80;99.90
10583;DHT22;33679;51.218;6.786;2023-05-10T02:42:02;17.70;99.90
10583;DHT22;33679;51.218;6.786;2023-05-10T02:44:36;17.80;99.90
10583;DHT22;33679;51.218;6.786;2023-05-10T02:47:11;17.80;99.90
10583;DHT22;33679;51.218;6.786;2023-05-10T02:49:44;17.80;99.90
10583;DHT22;33679;51.218;6.786;2023-05-10T02:52:23;17.80;99.90
10583;DHT22;33679;51.218;6.786;2023-05-10T02:55:00;17.80;99.90
10583;DHT22;33679;51.218;6.786;2023-05-10T02:57:34;17.80;99.90
10583;DHT22;33679;51.218;6.786;2023-05-10T03:00:07;17.90;99.90
10583;DHT22;33679;51.218;6.786;2023-05-10T03:02:40;17.90;99.90
10583;DHT22;33679;51.218;6.786;2023-05-10T03:05:13;17.90;99.90
10583;DHT22;33679;51.218;6.786;2023-05-10T03:07:50;17.90;99.90
10583;DHT22;33679;51.218;6.786;2023-05-10T03:10:27;17.90;99.90
10583;DHT22;33679;51.218;6.786;2023-05-10T03:13:10;18.00;99.90
10583;DHT22;33679;51.218;6.786;2023-05-10T03:15:50;18.00;99.90
10583;DHT22;33679;51.218;6.786;2023-05-10T03:18:33;17.90;99.90
10583;DHT22;33679;51.218;6.786;2023-05-10T03:21:08;17.90;99.90
10583;DHT22;33679;51.218;6.786;2023-05-10T03:23:51;17.90;99.90
10583;DHT22;33679;51.218;6.786;2023-05-10T03:26:29;17.90;99.90
10583;DHT22;33679;51.218;6.786;2023-05-10T03:29:10;17.90;99.90
10583;DHT22;33679;51.218;6.786;2023-05-10T03:31:43;17.90;99.90
10583;DHT22;33679;51.218;6.786;2023-05-10T03:34:16;18.00;99.90
10583;DHT22;33679;51.218;6.786;2023-05-10T03:36:48;18.00;99.90
10583;DHT22;33679;51.218;6.786;2023-05-10T03:39:25;18.10;99.90
10583;DHT22;33679;51.218;6.786;2023-05-10T03:42:02;18.00;99.90
10583;DHT22;33679;51.218;6.786;2023-05-10T03:44:37;18.00;99.90
10583;DHT22;33679;51.218;6.786;2023-05-10T03:47:09;18.10;99.90
10583;DHT22;33679;51.218;6.786;2023-05-10T03:49:41;18.10;99.90
10583;DHT22;33679;51.218;6.786;2023-05-10T03:52:14;18.10;99.90
10583;DHT22;33679;51.218;6.786;2023-05-10T03:54:48;18.10;99.90
10583;DHT22;33679;51.218;6.786;2023-05-10T03:57:20;18.00;99.90
10583;DHT22;33679;51.218;6.786;2023-05-10T03:59:53;18.00;99.90
10583;DHT22;33679;51.218;6.786;2023-05-10T04:02:25;18.00;99.90
10583;DHT22;33679;51.218;6.786;2023-05-10T04:04:57;18.00;99.90
10583;DHT22;33679;51.218;6.786;2023-05-10T04:07:33;18.00;99.90
10583;DHT22;33679;51.218;6.786;2023-05-10T04:10:09;18.00;99.90
10583;DHT22;33679;51.218;6.786;2023-05-10T04:12:42;17.90;99.90
10583;DHT22;33679;51.218;6.786;2023-05-10T04:15:14;17.90;99.90
10583;DHT22;33679;51.218;6.786;2023-05-10T04:17:49;17.90;99.90
10583;DHT22;33679;51.218;6.786;2023-05-10T04:20:22;17.90;99.90
10583;DHT22;33679;51.218;6.786;2023-05-10T04:22:54;17.90;99.90
10583;DHT22;33679;51.218;6.786;2023-05-10T04:25:28;17.90;99.90
10583;DHT22;33679;51.218;6.786;2023-05-10T04:28:00;17.90;99.90
10583;DHT22;33679;51.218;6.786;2023-05-10T04:30:33;17.90;99.90
10583;DHT22;33679;51.218;6.786;2023-05-10T04:33:06;17.90;99.90
10583;DHT22;33679;51.218;6.786;2023-05-10T04:35:38;17.90;99.90
10583;DHT22;33679;51.218;6.786;2023-05-10T04:38:11;17.90;99.90
10583;DHT22;33679;51.218;6.786;2023-05-10T04:40:45;17.90;99.90
10583;DHT22;33679;51.218;6.786;2023-05-10T04:43:21;17.90;99.90
10583;DHT22;33679;51.218;6.786;2023-05-10T04:45:56;17.90;99.90
10583;DHT22;33679;51.218;6.786;2023-05-10T04:48:28;17.90;99.90
10583;DHT22;33679;51.218;6.786;2023-05-10T04:51:01;18.00;99.90
10583;DHT22;33679;51.218;6.786;2023-05-10T04:53:34;18.00;99.90
10583;DHT22;33679;51.218;6.786;2023-05-10T04:56:08;18.10;99.90
10583;DHT22;33679;51.218;6.786;2023-05-10T04:58:40;18.10;99.90
10583;DHT22;33679;51.218;6.786;2023-05-10T05:01:12;18.10;99.90
10583;DHT22;33679;51.218;6.786;2023-05-10T05:03:45;18.10;99.90
10583;DHT22;33679;51.218;6.786;2023-05-10T05:06:17;18.10;99.90
10583;DHT22;33679;51.218;6.786;2023-05-10T05:08:49;18.10;99.90
10583;DHT22;33679;51.218;6.786;2023-05-10T05:11:23;18.10;99.90
10583;DHT22;33679;51.218;6.786;2023-05-10T05:13:56;18.10;99.90
10583;DHT22;33679;51.218;6.786;2023-05-10T05:16:30;18.10;99.90
10583;DHT22;33679;51.218;6.786;2023-05-10T05:19:02;18.10;99.90
10583;DHT22;33679;51.218;6.786;2023-05-10T05:21:35;18.00;99.90
10583;DHT22;33679;51.218;6.786;2023-05-10T05:24:09;18.00;99.90
10583;DHT22;33679;51.218;6.786;2023-05-10T05:26:44;18.00;99.90
10583;DHT22;33679;51.218;6.786;2023-05-10T05:29:16;18.10;99.90
10583;DHT22;33679;51.218;6.786;2023-05-10T05:31:49;18.00;99.90
10583;DHT22;33679;51.218;6.786;2023-05-10T05:34:21;18.00;99.90
10583;DHT22;33679;51.218;6.786;2023-05-10T05:36:53;18.00;99.90
10583;DHT22;33679;51.218;6.786;2023-05-10T05:39:26;18.10;99.90
10583;DHT22;33679;51.218;6.786;2023-05-10T05:41:59;18.10;99.90
10583;DHT22;33679;51.218;6.786;2023-05-10T05:44:31;18.00;99.90
10583;DHT22;33679;51.218;6.786;2023-05-10T05:47:04;17.90;99.90
10583;DHT22;33679;51.218;6.786;2023-05-10T05:49:37;17.90;99.90
10583;DHT22;33679;51.218;6.786;2023-05-10T05:52:09;17.90;99.90
10583;DHT22;33679;51.218;6.786;2023-05-10T05:54:42;17.80;99.90
10583;DHT22;33679;51.218;6.786;2023-05-10T05:57:15;17.80;99.90
10583;DHT22;33679;51.218;6.786;2023-05-10T05:59:48;17.80;99.90
10583;DHT22;33679;51.218;6.786;2023-05-10T06:02:21;17.80;99.90
10583;DHT22;33679;51.218;6.786;2023-05-10T06:04:53;17.80;99.90
10583;DHT22;33679;51.218;6.786;2023-05-10T06:07:27;17.80;99.90
10583;DHT22;33679;51.218;6.786;2023-05-10T06:10:00;17.90;99.90
10583;DHT22;33679;51.218;6.786;2023-05-10T06:12:35;17.90;99.90
10583;DHT22;33679;51.218;6.786;2023-05-10T06:15:08;17.90;99.90
10583;DHT22;33679;51.218;6.786;2023-05-10T06:17:41;17.90;99.90
10583;DHT22;33679;51.218;6.786;2023-05-10T06:20:15;17.80;99.90
10583;DHT22;33679;51.218;6.786;2023-05-10T06:22:49;17.80;99.90
10583;DHT22;33679;51.218;6.786;2023-05-10T06:25:21;17.80;99.90
10583;DHT22;33679;51.218;6.786;2023-05-10T06:27:55;17.70;99.90
10583;DHT22;33679;51.218;6.786;2023-05-10T06:30:28;17.70;99.90
10583;DHT22;33679;51.218;6.786;2023-05-10T06:33:00;17.70;99.90
10583;DHT22;33679;51.218;6.786;2023-05-10T06:35:33;17.70;99.90
10583;DHT22;33679;51.218;6.786;2023-05-10T06:38:05;17.70;99.90
10583;DHT22;33679;51.218;6.786;2023-05-10T06:40:41;17.60;99.90
10583;DHT22;33679;51.218;6.786;2023-05-10T06:43:15;17.60;99.90
10583;DHT22;33679;51.218;6.786;2023-05-10T06:45:48;17.70;99.90
10583;DHT22;33679;51.218;6.786;2023-05-10T06:48:20;17.60;99.90
10583;DHT22;33679;51.218;6.786;2023-05-10T06:50:52;17.50;99.90
10583;DHT22;33679;51.218;6.786;2023-05-10T06:53:25;17.50;99.90
10583;DHT22;33679;51.218;6.786;2023-05-10T06:55:57;17.40;99.90
10583;DHT22;33679;51.218;6.786;2023-05-10T06:58:31;17.40;99.90
10583;DHT22;33679;51.218;6.786;2023-05-10T07:01:03;17.50;99.90
10583;DHT22;33679;51.218;6.786;2023-05-10T07:03:38;17.50;99.90
10583;DHT22;33679;51.218;6.786;2023-05-10T07:06:10;17.60;99.90
10583;DHT22;33679;51.218;6.786;2023-05-10T07:08:42;17.60;99.90
10583;DHT22;33679;51.218;6.786;2023-05-10T07:11:15;17.70;99.90
10583;DHT22;33679;51.218;6.786;2023-05-10T07:13:48;17.80;99.90
10583;DHT22;33679;51.218;6.786;2023-05-10T07:16:21;17.80;99.90
10583;DHT22;33679;51.218;6.786;2023-05-10T07:18:54;17.90;99.90
10583;DHT22;33679;51.218;6.786;2023-05-10T07:21:29;17.90;99.90
10583;DHT22;33679;51.218;6.786;2023-05-10T07:24:02;17.90;99.90
10583;DHT22;33679;51.218;6.786;2023-05-10T07:26:34;17.90;99.90
10583;DHT22;33679;51.218;6.786;2023-05-10T07:29:08;18.00;99.90
10583;DHT22;33679;51.218;6.786;2023-05-10T07:31:40;18.10;99.90
10583;DHT22;33679;51.218;6.786;2023-05-10T07:34:13;18.20;99.90
10583;DHT22;33679;51.218;6.786;2023-05-10T07:36:45;18.30;99.90
10583;DHT22;33679;51.218;6.786;2023-05-10T07:39:20;18.40;99.90
10583;DHT22;33679;51.218;6.786;2023-05-10T07:41:52;18.40;99.90
10583;DHT22;33679;51.218;6.786;2023-05-10T07:44:26;18.40;99.90
10583;DHT22;33679;51.218;6.786;2023-05-10T07:47:01;18.50;99.90
10583;DHT22;33679;51.218;6.786;2023-05-10T07:49:33;18.50;99.90
10583;DHT22;33679;51.218;6.786;2023-05-10T07:52:06;18.50;99.90
10583;DHT22;33679;51.218;6.786;2023-05-10T07:54:39;18.50;99.90
10583;DHT22;33679;51.218;6.786;2023-05-10T07:57:11;18.40;99.90
10583;DHT22;33679;51.218;6.786;2023-05-10T07:59:46;18.30;99.90
10583;DHT22;33679;51.218;6.786;2023-05-10T08:02:20;18.30;99.90
10583;DHT22;33679;51.218;6.786;2023-05-10T08:04:55;18.30;99.90
10583;DHT22;33679;51.218;6.786;2023-05-10T08:07:27;18.30;99.90
10583;DHT22;33679;51.218;6.786;2023-05-10T08:10:02;18.30;99.90
10583;DHT22;33679;51.218;6.786;2023-05-10T08:12:34;18.30;99.90
10583;DHT22;33679;51.218;6.786;2023-05-10T08:15:10;18.30;99.90
10583;DHT22;33679;51.218;6.786;2023-05-10T08:17:42;18.50;99.90
10583;DHT22;33679;51.218;6.786;2023-05-10T08:20:15;18.50;99.90
10583;DHT22;33679;51.218;6.786;2023-05-10T08:22:49;18.60;99.90
10583;DHT22;33679;51.218;6.786;2023-05-10T08:25:22;18.70;99.90
10583;DHT22;33679;51.218;6.786;2023-05-10T08:27:56;18.80;99.90
10583;DHT22;33679;51.218;6.786;2023-05-10T08:30:30;19.00;99.90
10583;DHT22;33679;51.218;6.786;2023-05-10T08:33:02;19.10;99.90
10583;DHT22;33679;51.218;6.786;2023-05-10T08:35:35;19.20;99.90
10583;DHT22;33679;51.218;6.786;2023-05-10T08:38:07;19.30;99.90
10583;DHT22;33679;51.218;6.786;2023-05-10T08:40:42;19.40;99.90
10583;DHT22;33679;51.218;6.786;2023-05-10T08:43:14;19.50;99.90
10583;DHT22;33679;51.218;6.786;2023-05-10T08:45:49;19.50;99.90
10583;DHT22;33679;51.218;6.786;2023-05-10T08:48:24;19.60;99.90
10583;DHT22;33679;51.218;6.786;2023-05-10T08:50:58;19.60;99.90
10583;DHT22;33679;51.218;6.786;2023-05-10T08:53:34;19.60;99.90
10583;DHT22;33679;51.218;6.786;2023-05-10T08:56:08;19.60;99.90
10583;DHT22;33679;51.218;6.786;2023-05-10T08:58:41;19.50;99.90
10583;DHT22;33679;51.218;6.786;2023-05-10T09:01:16;19.50;99.90
10583;DHT22;33679;51.218;6.786;2023-05-10T09:03:50;19.50;99.90
10583;DHT22;33679;51.218;6.786;2023-05-10T09:06:25;19.40;99.90
10583;DHT22;33679;51.218;6.786;2023-05-10T09:08:59;19.40;99.90
10583;DHT22;33679;51.218;6.786;2023-05-10T09:11:32;19.40;99.90
10583;DHT22;33679;51.218;6.786;2023-05-10T09:14:04;19.50;99.90
10583;DHT22;33679;51.218;6.786;2023-05-10T09:16:40;19.50;99.90
10583;DHT22;33679;51.218;6.786;2023-05-10T09:19:12;19.50;99.90
10583;DHT22;33679;51.218;6.786;2023-05-10T09:21:44;19.50;99.90
10583;DHT22;33679;51.218;6.786;2023-05-10T09:24:17;19.50;99.90
10583;DHT22;33679;51.218;6.786;2023-05-10T09:26:49;19.50;99.90
10583;DHT22;33679;51.218;6.786;2023-05-10T09:29:22;19.60;99.90
10583;DHT22;33679;51.218;6.786;2023-05-10T09:31:55;19.60;99.90
10583;DHT22;33679;51.218;6.786;2023-05-10T09:34:31;19.70;99.90
10583;DHT22;33679;51.218;6.786;2023-05-10T09:37:03;19.70;99.90
10583;DHT22;33679;51.218;6.786;2023-05-10T09:39:36;19.70;99.90
10583;DHT22;33679;51.218;6.786;2023-05-10T09:42:10;19.70;99.90
10583;DHT22;33679;51.218;6.786;2023-05-10T09:44:42;19.60;99.90
10583;DHT22;33679;51.218;6.786;2023-05-10T09:47:18;19.60;99.90
10583;DHT22;33679;51.218;6.786;2023-05-10T09:49:52;19.60;99.90
10583;DHT22;33679;51.218;6.786;2023-05-10T09:52:26;19.60;99.90
10583;DHT22;33679;51.218;6.786;2023-05-10T09:54:59;19.60;99.90
10583;DHT22;33679;51.218;6.786;2023-05-10T09:57:34;19.70;99.90
10583;DHT22;33679;51.218;6.786;2023-05-10T10:00:07;19.70;99.90
10583;DHT22;33679;51.218;6.786;2023-05-10T10:02:55;19.80;99.90
10583;DHT22;33679;51.218;6.786;2023-05-10T10:05:30;19.80;99.90
10583;DHT22;33679;51.218;6.786;2023-05-10T10:08:04;19.90;99.90
10583;DHT22;33679;51.218;6.786;2023-05-10T10:10:37;19.90;99.90
10583;DHT22;33679;51.218;6.786;2023-05-10T10:13:09;19.80;99.90
10583;DHT22;33679;51.218;6.786;2023-05-10T10:15:42;19.80;99.90
10583;DHT22;33679;51.218;6.786;2023-05-10T10:18:17;19.90;99.90
10583;DHT22;33679;51.218;6.786;2023-05-10T10:20:54;19.80;99.90
10583;DHT22;33679;51.218;6.786;2023-05-10T10:23:27;19.80;99.90
10583;DHT22;33679;51.218;6.786;2023-05-10T10:26:00;19.90;99.90
10583;DHT22;33679;51.218;6.786;2023-05-10T10:28:38;19.90;99.90
10583;DHT22;33679;51.218;6.786;2023-05-10T10:31:17;20.00;99.90
10583;DHT22;33679;51.218;6.786;2023-05-10T10:34:01;20.10;99.90
10583;DHT22;33679;51.218;6.786;2023-05-10T10:36:40;20.00;99.90
10583;DHT22;33679;51.218;6.786;2023-05-10T10:39:15;20.10;99.90
10583;DHT22;33679;51.218;6.786;2023-05-10T10:41:52;20.00;99.90
10583;DHT22;33679;51.218;6.786;2023-05-10T10:44:37;20.00;99.90
10583;DHT22;33679;51.218;6.786;2023-05-10T10:47:22;20.10;99.90
10583;DHT22;33679;51.218;6.786;2023-05-10T10:50:06;20.10;99.90
10583;DHT22;33679;51.218;6.786;2023-05-10T10:52:39;20.20;99.90
10583;DHT22;33679;51.218;6.786;2023-05-10T10:55:13;20.20;99.90
10583;DHT22;33679;51.218;6.786;2023-05-10T10:57:49;20.20;99.90
10583;DHT22;33679;51.218;6.786;2023-05-10T11:00:25;20.30;99.90
10583;DHT22;33679;51.218;6.786;2023-05-10T11:02:59;20.30;99.90
10583;DHT22;33679;51.218;6.786;2023-05-10T11:05:38;20.30;99.90
10583;DHT22;33679;51.218;6.786;2023-05-10T11:08:13;20.30;99.90
10583;DHT22;33679;51.218;6.786;2023-05-10T11:11:02;20.20;99.90
10583;DHT22;33679;51.218;6.786;2023-05-10T11:13:39;20.20;99.90
10583;DHT22;33679;51.218;6.786;2023-05-10T11:16:17;20.00;99.90
10583;DHT22;33679;51.218;6.786;2023-05-10T11:19:01;20.00;99.90
10583;DHT22;33679;51.218;6.786;2023-05-10T11:21:45;19.90;99.90
10583;DHT22;33679;51.218;6.786;2023-05-10T11:24:27;19.80;99.90
10583;DHT22;33679;51.218;6.786;2023-05-10T11:26:59;19.80;99.90
10583;DHT22;33679;51.218;6.786;2023-05-10T11:29:32;19.70;99.90
10583;DHT22;33679;51.218;6.786;2023-05-10T11:32:05;19.70;99.90
10583;DHT22;33679;51.218;6.786;2023-05-10T11:34:39;19.70;99.90
10583;DHT22;33679;51.218;6.786;2023-05-10T11:37:15;19.70;99.90
10583;DHT22;33679;51.218;6.786;2023-05-10T11:39:47;19.80;99.90
10583;DHT22;33679;51.218;6.786;2023-05-10T11:42:19;19.90;99.90
10583;DHT22;33679;51.218;6.786;2023-05-10T11:44:54;20.00;99.90
10583;DHT22;33679;51.218;6.786;2023-05-10T11:47:27;20.00;99.90
10583;DHT22;33679;51.218;6.786;2023-05-10T11:49:59;20.10;99.90
10583;DHT22;33679;51.218;6.786;2023-05-10T11:52:37;20.10;99.90
10583;DHT22;33679;51.218;6.786;2023-05-10T11:55:09;20.20;99.90
10583;DHT22;33679;51.218;6.786;2023-05-10T11:57:42;20.40;99.90
10583;DHT22;33679;51.218;6.786;2023-05-10T12:00:16;20.40;99.90
10583;DHT22;33679;51.218;6.786;2023-05-10T12:02:49;20.60;99.90
10583;DHT22;33679;51.218;6.786;2023-05-10T12:05:22;20.60;99.90
10583;DHT22;33679;51.218;6.786;2023-05-10T12:08:12;20.60;99.90
10583;DHT22;33679;51.218;6.786;2023-05-10T12:10:44;20.70;99.90
10583;DHT22;33679;51.218;6.786;2023-05-10T12:13:17;20.70;99.90
10583;DHT22;33679;51.218;6.786;2023-05-10T12:15:50;20.80;99.90
10583;DHT22;33679;51.218;6.786;2023-05-10T12:18:23;20.80;99.90
10583;DHT22;33679;51.218;6.786;2023-05-10T12:21:03;20.90;99.90
10583;DHT22;33679;51.218;6.786;2023-05-10T12:23:37;20.90;99.90
10583;DHT22;33679;51.218;6.786;2023-05-10T12:26:10;20.90;99.90
10583;DHT22;33679;51.218;6.786;2023-05-10T12:28:43;21.00;99.90
10583;DHT22;33679;51.218;6.786;2023-05-10T12:31:15;21.00;99.90
10583;DHT22;33679;51.218;6.786;2023-05-10T12:33:47;21.00;99.90
10583;DHT22;33679;51.218;6.786;2023-05-10T12:36:23;21.00;99.90
10583;DHT22;33679;51.218;6.786;2023-05-10T12:39:03;21.00;99.90
10583;DHT22;33679;51.218;6.786;2023-05-10T12:41:36;21.00;99.90
10583;DHT22;33679;51.218;6.786;2023-05-10T12:44:09;21.00;99.90
10583;DHT22;33679;51.218;6.786;2023-05-10T12:46:41;21.00;99.90
10583;DHT22;33679;51.218;6.786;2023-05-10T12:49:13;21.10;99.90
10583;DHT22;33679;51.218;6.786;2023-05-10T12:51:46;21.10;99.90
10583;DHT22;33679;51.218;6.786;2023-05-10T12:54:19;21.10;99.90
10583;DHT22;33679;51.218;6.786;2023-05-10T12:56:52;21.10;99.90
10583;DHT22;33679;51.218;6.786;2023-05-10T12:59:25;21.10;99.90
10583;DHT22;33679;51.218;6.786;2023-05-10T13:01:57;21.10;99.90
10583;DHT22;33679;51.218;6.786;2023-05-10T13:04:33;21.20;99.90
10583;DHT22;33679;51.218;6.786;2023-05-10T13:07:08;21.30;99.90
10583;DHT22;33679;51.218;6.786;2023-05-10T13:09:42;21.30;99.90
10583;DHT22;33679;51.218;6.786;2023-05-10T13:12:14;21.40;99.90
10583;DHT22;33679;51.218;6.786;2023-05-10T13:14:46;21.50;99.90
10583;DHT22;33679;51.218;6.786;2023-05-10T13:17:19;21.50;99.90
10583;DHT22;33679;51.218;6.786;2023-05-10T13:19:51;21.50;99.90
10583;DHT22;33679;51.218;6.786;2023-05-10T13:22:24;21.60;99.90
10583;DHT22;33679;51.218;6.786;2023-05-10T13:24:57;21.50;99.90
10583;DHT22;33679;51.218;6.786;2023-05-10T13:27:32;21.60;99.90
10583;DHT22;33679;51.218;6.786;2023-05-10T13:30:05;21.60;99.90
10583;DHT22;33679;51.218;6.786;2023-05-10T13:32:40;21.70;99.90
10583;DHT22;33679;51.218;6.786;2023-05-10T13:35:13;21.60;99.90
10583;DHT22;33679;51.218;6.786;2023-05-10T13:37:45;21.60;99.90
10583;DHT22;33679;51.218;6.786;2023-05-10T13:40:19;21.50;99.90
10583;DHT22;33679;51.218;6.786;2023-05-10T13:42:52;21.50;99.90
10583;DHT22;33679;51.218;6.786;2023-05-10T13:45:25;21.50;99.90
10583;DHT22;33679;51.218;6.786;2023-05-10T13:47:57;21.50;99.90
10583;DHT22;33679;51.218;6.786;2023-05-10T13:50:30;21.60;99.90
10583;DHT22;33679;51.218;6.786;2023-05-10T13:53:02;21.60;99.90
10583;DHT22;33679;51.218;6.786;2023-05-10T13:55:36;21.70;99.90
10583;DHT22;33679;51.218;6.786;2023-05-10T13:58:08;21.70;99.90
10583;DHT22;33679;51.218;6.786;2023-05-10T14:00:41;21.70;99.90
10583;DHT22;33679;51.218;6.786;2023-05-10T14:03:14;21.70;99.90
10583;DHT22;33679;51.218;6.786;2023-05-10T14:05:46;21.70;99.90
10583;DHT22;33679;51.218;6.786;2023-05-10T14:08:19;21.80;99.90
10583;DHT22;33679;51.218;6.786;2023-05-10T14:10:52;21.80;99.90
10583;DHT22;33679;51.218;6.786;2023-05-10T14:13:29;21.80;99.90
10583;DHT22;33679;51.218;6.786;2023-05-10T14:16:03;21.70;99.90
10583;DHT22;33679;51.218;6.786;2023-05-10T14:18:36;21.70;99.90
10583;DHT22;33679;51.218;6.786;2023-05-10T14:21:08;21.70;99.90
10583;DHT22;33679;51.218;6.786;2023-05-10T14:23:41;21.80;99.90
10583;DHT22;33679;51.218;6.786;2023-05-10T14:26:15;21.80;99.90
10583;DHT22;33679;51.218;6.786;2023-05-10T14:28:50;21.80;99.90
10583;DHT22;33679;51.218;6.786;2023-05-10T14:31:22;21.80;99.90
10583;DHT22;33679;51.218;6.786;2023-05-10T14:33:56;21.80;99.90
10583;DHT22;33679;51.218;6.786;2023-05-10T14:36:30;21.80;99.90
10583;DHT22;33679;51.218;6.786;2023-05-10T14:39:03;21.90;99.90
10583;DHT22;33679;51.218;6.786;2023-05-10T14:41:38;21.90;99.90
10583;DHT22;33679;51.218;6.786;2023-05-10T14:44:12;21.90;99.90
10583;DHT22;33679;51.218;6.786;2023-05-10T14:46:44;21.90;99.90
10583;DHT22;33679;51.218;6.786;2023-05-10T14:49:18;22.00;99.90
10583;DHT22;33679;51.218;6.786;2023-05-10T14:51:53;22.10;99.90
10583;DHT22;33679;51.218;6.786;2023-05-10T14:54:26;22.10;99.90
10583;DHT22;33679;51.218;6.786;2023-05-10T14:56:59;22.20;99.90
10583;DHT22;33679;51.218;6.786;2023-05-10T14:59:32;22.30;99.90
10583;DHT22;33679;51.218;6.786;2023-05-10T15:02:04;22.30;99.90
10583;DHT22;33679;51.218;6.786;2023-05-10T15:04:39;22.30;99.90
10583;DHT22;33679;51.218;6.786;2023-05-10T15:07:13;22.30;99.90
10583;DHT22;33679;51.218;6.786;2023-05-10T15:09:47;22.40;99.90
10583;DHT22;33679;51.218;6.786;2023-05-10T15:12:21;22.40;99.90
10583;DHT22;33679;51.218;6.786;2023-05-10T15:14:56;22.40;99.90
10583;DHT22;33679;51.218;6.786;2023-05-10T15:17:28;22.40;99.90
10583;DHT22;33679;51.218;6.786;2023-05-10T15:20:04;22.40;99.90
10583;DHT22;33679;51.218;6.786;2023-05-10T15:22:37;22.50;99.90
10583;DHT22;33679;51.218;6.786;2023-05-10T15:25:09;22.60;99.90
10583;DHT22;33679;51.218;6.786;2023-05-10T15:27:43;22.60;99.90
10583;DHT22;33679;51.218;6.786;2023-05-10T15:30:15;22.60;99.90
10583;DHT22;33679;51.218;6.786;2023-05-10T15:32:48;22.60;99.90
10583;DHT22;33679;51.218;6.786;2023-05-10T15:35:21;22.50;99.90
10583;DHT22;33679;51.218;6.786;2023-05-10T15:37:54;22.50;99.90
10583;DHT22;33679;51.218;6.786;2023-05-10T15:40:29;22.60;99.90
10583;DHT22;33679;51.218;6.786;2023-05-10T15:43:03;22.60;99.90
10583;DHT22;33679;51.218;6.786;2023-05-10T15:45:36;22.60;99.90
10583;DHT22;33679;51.218;6.786;2023-05-10T15:48:08;22.60;99.90
10583;DHT22;33679;51.218;6.786;2023-05-10T15:50:41;22.70;99.90
10583;DHT22;33679;51.218;6.786;2023-05-10T15:53:14;22.60;99.90
10583;DHT22;33679;51.218;6.786;2023-05-10T15:55:52;22.70;99.90
10583;DHT22;33679;51.218;6.786;2023-05-10T15:58:29;22.70;99.90
10583;DHT22;33679;51.218;6.786;2023-05-10T16:01:02;22.60;99.90
10583;DHT22;33679;51.218;6.786;2023-05-10T16:03:38;22.50;99.90
10583;DHT22;33679;51.218;6.786;2023-05-10T16:06:11;22.40;99.90
10583;DHT22;33679;51.218;6.786;2023-05-10T16:08:46;22.40;99.90
10583;DHT22;33679;51.218;6.786;2023-05-10T16:11:18;22.40;99.90
10583;DHT22;33679;51.218;6.786;2023-05-10T16:13:52;22.30;99.90